createdAt,value
2019-03-29T00:02:24.704Z,56.40
2019-03-29T00:04:53.595Z,63.27
2019-03-29T00:07:22.705Z,65.53
2019-03-29T00:09:51.441Z,66.37
2019-03-29T00:12:20.546Z,66.40
2019-03-29T00:14:52.823Z,63.60
2019-03-29T00:17:21.859Z,67.70
2019-03-29T00:19:50.831Z,63.67
2019-03-29T00:22:19.921Z,73.97
2019-03-29T00:24:48.677Z,68.47
2019-03-29T00:27:17.584Z,69.20
2019-03-29T00:29:47.187Z,71.30
2019-03-29T00:32:15.889Z,74.57
2019-03-29T00:34:44.779Z,72.57
2019-03-29T00:37:13.695Z,72.07
2019-03-29T00:39:42.523Z,75.43
2019-03-29T00:42:11.339Z,73.83
2019-03-29T00:44:40.128Z,74.83
2019-03-29T00:47:08.942Z,73.67
2019-03-29T00:49:37.715Z,75.63
2019-03-29T00:52:06.585Z,70.93
2019-03-29T00:54:35.473Z,74.90
2019-03-29T00:57:04.950Z,72.93
2019-03-29T00:59:34.232Z,79.80
2019-03-29T01:02:02.997Z,79.23
2019-03-29T01:04:31.809Z,82.63
2019-03-29T01:07:00.668Z,68.83
2019-03-29T01:09:30.250Z,79.77
2019-03-29T01:11:59.739Z,76.90
2019-03-29T01:14:28.628Z,74.40
2019-03-29T01:16:57.900Z,77.83
2019-03-29T01:19:26.794Z,73.27
2019-03-29T01:21:55.547Z,68.00
2019-03-29T01:24:24.404Z,73.23
2019-03-29T01:26:53.357Z,72.03
2019-03-29T01:29:22.446Z,67.37
2019-03-29T01:31:51.243Z,76.10
2019-03-29T01:34:20.169Z,84.73
2019-03-29T01:36:49.074Z,82.17
2019-03-29T01:39:17.941Z,75.43
2019-03-29T01:41:46.689Z,66.57
2019-03-29T01:44:15.383Z,72.67
2019-03-29T01:46:44.187Z,75.33
2019-03-29T01:49:13.021Z,77.10
2019-03-29T01:51:41.827Z,73.23
2019-03-29T01:54:10.693Z,73.47
2019-03-29T01:56:39.413Z,76.63
2019-03-29T01:59:09.239Z,74.67
2019-03-29T02:01:38.455Z,71.87
2019-03-29T02:04:08.055Z,74.13
2019-03-29T02:06:37.331Z,76.07
2019-03-29T02:09:06.165Z,78.63
2019-03-29T02:11:34.920Z,74.87
2019-03-29T02:14:03.732Z,68.80
2019-03-29T02:16:32.588Z,72.33
2019-03-29T02:19:01.281Z,65.67
2019-03-29T02:21:30.272Z,71.73
2019-03-29T02:23:59.098Z,66.63
2019-03-29T02:26:32.510Z,72.73
2019-03-29T02:29:01.543Z,60.07
2019-03-29T02:31:30.356Z,59.63
2019-03-29T02:33:59.194Z,56.20
2019-03-29T02:36:28.055Z,56.87
2019-03-29T02:38:58.953Z,61.83
2019-03-29T02:41:27.478Z,66.53
2019-03-29T02:43:56.323Z,63.73
2019-03-29T02:46:25.842Z,58.63
2019-03-29T02:48:55.002Z,63.60
2019-03-29T02:51:23.717Z,63.67
2019-03-29T02:53:52.473Z,60.47
2019-03-29T02:56:21.185Z,62.53
2019-03-29T02:58:49.875Z,58.97
2019-03-29T03:01:18.650Z,59.47
2019-03-29T03:03:47.505Z,62.33
2019-03-29T03:06:16.283Z,58.07
2019-03-29T03:08:45.247Z,63.43
2019-03-29T03:11:14.170Z,59.20
2019-03-29T03:13:43.059Z,62.13
2019-03-29T03:16:11.994Z,53.33
2019-03-29T03:18:40.817Z,55.37
2019-03-29T03:21:09.742Z,56.97
2019-03-29T03:23:38.548Z,58.37
2019-03-29T03:26:07.282Z,54.27
2019-03-29T03:28:36.077Z,60.50
2019-03-29T03:31:04.916Z,53.20
2019-03-29T03:33:33.806Z,54.57
2019-03-29T03:36:02.612Z,56.33
2019-03-29T03:38:31.379Z,55.10
2019-03-29T03:41:00.282Z,60.37
2019-03-29T03:43:29.136Z,57.50
2019-03-29T03:45:57.947Z,54.87
2019-03-29T03:48:26.806Z,56.20
2019-03-29T03:50:55.580Z,57.27
2019-03-29T03:53:24.518Z,51.87
2019-03-29T03:55:53.458Z,55.53
2019-03-29T03:58:22.229Z,52.93
2019-03-29T04:00:52.163Z,53.93
2019-03-29T04:03:21.217Z,49.43
2019-03-29T04:05:49.951Z,51.63
2019-03-29T04:08:19.090Z,51.37
2019-03-29T04:10:47.869Z,53.27
2019-03-29T04:13:16.712Z,51.23
2019-03-29T04:15:45.597Z,54.40
2019-03-29T04:18:16.082Z,58.63
2019-03-29T04:20:44.966Z,53.77
2019-03-29T04:23:13.913Z,55.43
2019-03-29T04:25:42.683Z,52.93
2019-03-29T04:28:11.389Z,49.50
2019-03-29T04:30:40.142Z,56.43
2019-03-29T04:33:11.319Z,52.37
2019-03-29T04:35:39.552Z,52.70
2019-03-29T04:38:08.352Z,52.70
2019-03-29T04:40:37.059Z,49.67
2019-03-29T04:43:06.015Z,49.63
2019-03-29T04:45:34.823Z,53.03
2019-03-29T04:48:03.631Z,47.83
2019-03-29T04:50:32.562Z,55.13
2019-03-29T04:53:01.363Z,52.40
2019-03-29T04:55:30.262Z,46.93
2019-03-29T04:57:59.511Z,48.50
2019-03-29T05:00:28.394Z,51.60
2019-03-29T05:02:57.140Z,50.60
2019-03-29T05:05:25.877Z,50.80
2019-03-29T05:07:54.658Z,53.00
2019-03-29T05:10:23.476Z,50.10
2019-03-29T05:12:52.378Z,47.07
2019-03-29T05:15:21.133Z,48.83
2019-03-29T05:17:49.915Z,48.47
2019-03-29T05:20:18.800Z,50.33
2019-03-29T05:22:47.754Z,50.20
2019-03-29T05:25:16.590Z,43.17
2019-03-29T05:27:45.410Z,48.30
2019-03-29T05:30:14.167Z,45.93
2019-03-29T05:32:43.161Z,48.83
2019-03-29T05:35:11.952Z,47.67
2019-03-29T05:37:40.875Z,51.50
2019-03-29T05:40:09.722Z,50.63
2019-03-29T05:42:38.709Z,44.33
2019-03-29T05:45:08.143Z,44.27
2019-03-29T05:47:37.084Z,45.20
2019-03-29T05:50:06.069Z,44.03
2019-03-29T05:52:34.754Z,40.03
2019-03-29T05:55:03.626Z,43.43
2019-03-29T05:57:32.290Z,39.30
2019-03-29T06:00:01.058Z,37.63
2019-03-29T06:02:29.848Z,40.13
2019-03-29T06:04:58.912Z,42.60
2019-03-29T06:07:27.703Z,41.53
2019-03-29T06:09:56.478Z,44.43
2019-03-29T06:12:25.301Z,36.47
2019-03-29T06:14:54.104Z,42.27
2019-03-29T06:17:24.130Z,34.93
2019-03-29T06:19:53.087Z,34.43
2019-03-29T06:22:22.170Z,38.10
2019-03-29T06:24:51.000Z,36.67
2019-03-29T06:27:19.890Z,38.03
2019-03-29T06:29:48.662Z,37.37
2019-03-29T06:32:17.421Z,32.00
2019-03-29T06:34:46.325Z,33.47
2019-03-29T06:37:15.109Z,31.23
2019-03-29T06:39:43.946Z,34.50
2019-03-29T06:42:12.710Z,35.53
2019-03-29T06:44:44.170Z,32.63
2019-03-29T06:47:12.110Z,31.67
2019-03-29T06:49:40.961Z,35.40
2019-03-29T06:52:09.864Z,32.77
2019-03-29T06:54:38.843Z,43.43
2019-03-29T06:57:07.800Z,41.40
2019-03-29T06:59:36.931Z,39.03
2019-03-29T07:02:08.021Z,43.63
2019-03-29T07:04:36.561Z,45.20
2019-03-29T07:07:06.197Z,47.10
2019-03-29T07:09:35.058Z,45.53
2019-03-29T07:12:03.854Z,61.33
2019-03-29T07:14:32.878Z,57.37
2019-03-29T07:17:01.774Z,55.90
2019-03-29T07:19:32.365Z,57.73
2019-03-29T07:22:03.618Z,69.93
2019-03-29T07:24:35.868Z,77.80
2019-03-29T07:27:04.939Z,79.47
2019-03-29T07:29:34.355Z,85.77
2019-03-29T07:32:03.322Z,92.93
2019-03-29T07:34:32.939Z,83.37
2019-03-29T07:37:01.906Z,90.40
2019-03-29T07:39:33.484Z,97.17
2019-03-29T07:42:08.309Z,106.43
2019-03-29T07:44:40.825Z,114.10
2019-03-29T07:47:10.237Z,100.57
2019-03-29T07:49:39.125Z,94.83
2019-03-29T07:52:08.312Z,100.23
2019-03-29T07:54:37.365Z,99.03
2019-03-29T07:57:06.287Z,100.80
2019-03-29T07:59:35.278Z,95.97
2019-03-29T08:02:04.708Z,104.47
2019-03-29T08:04:33.646Z,98.30
2019-03-29T08:07:10.306Z,100.00
2019-03-29T08:09:39.239Z,93.20
2019-03-29T08:12:08.271Z,85.60
2019-03-29T08:14:37.083Z,92.10
2019-03-29T08:17:06.017Z,90.23
2019-03-29T08:19:37.214Z,95.20
2019-03-29T08:22:05.933Z,89.10
2019-03-29T08:24:35.181Z,91.33
2019-03-29T08:27:04.103Z,80.53
2019-03-29T08:29:36.010Z,85.40
2019-03-29T08:32:05.096Z,84.93
2019-03-29T08:34:37.713Z,82.20
2019-03-29T08:37:10.207Z,78.73
2019-03-29T08:39:41.829Z,82.40
2019-03-29T08:42:20.432Z,71.33
2019-03-29T08:45:00.918Z,73.13
2019-03-29T08:47:30.489Z,72.10
2019-03-29T08:50:06.416Z,72.70
2019-03-29T08:52:44.250Z,76.87
2019-03-29T08:55:17.147Z,69.60
2019-03-29T08:57:47.023Z,75.67
2019-03-29T09:00:18.088Z,73.23
2019-03-29T09:02:47.536Z,82.37
2019-03-29T09:05:17.146Z,80.10
2019-03-29T09:07:46.753Z,90.27
2019-03-29T09:10:34.993Z,87.57
2019-03-29T09:13:13.253Z,88.97
2019-03-29T09:15:49.397Z,80.70
2019-03-29T09:18:25.520Z,88.53
2019-03-29T09:20:58.507Z,98.60
2019-03-29T09:23:30.310Z,99.30
2019-03-29T09:26:01.716Z,104.77
2019-03-29T09:28:33.035Z,106.23
2019-03-29T09:31:02.307Z,93.53
2019-03-29T09:33:34.605Z,96.93
2019-03-29T09:36:06.743Z,101.47
2019-03-29T09:38:35.752Z,95.03
2019-03-29T09:41:07.692Z,91.70
2019-03-29T09:43:37.197Z,98.40
2019-03-29T09:46:06.476Z,91.30
2019-03-29T09:48:38.509Z,90.83
2019-03-29T09:51:07.561Z,92.40
2019-03-29T09:53:36.875Z,93.00
2019-03-29T09:56:05.933Z,102.37
2019-03-29T09:58:34.993Z,104.43
2019-03-29T10:01:28.376Z,102.63
2019-03-29T10:05:10.327Z,94.27
2019-03-29T10:07:25.958Z,86.83
2019-03-29T10:09:56.544Z,95.77
2019-03-29T10:12:25.681Z,95.73
2019-03-29T10:14:54.612Z,100.73
2019-03-29T10:17:23.579Z,95.10
2019-03-29T10:19:52.526Z,91.00
2019-03-29T10:22:21.490Z,86.40
2019-03-29T10:24:50.605Z,87.10
2019-03-29T10:27:19.617Z,88.47
2019-03-29T10:29:48.368Z,84.77
2019-03-29T10:32:17.402Z,90.20
2019-03-29T10:34:46.427Z,88.43
2019-03-29T10:37:15.279Z,85.33
2019-03-29T10:39:44.195Z,80.90
2019-03-29T10:42:13.298Z,84.53
2019-03-29T10:44:42.415Z,78.87
2019-03-29T10:47:11.101Z,79.57
2019-03-29T10:49:39.905Z,83.93
2019-03-29T10:52:08.638Z,82.00
2019-03-29T10:54:37.413Z,84.13
2019-03-29T10:57:06.292Z,83.77
2019-03-29T10:59:35.047Z,84.67
2019-03-29T11:02:03.972Z,78.57
2019-03-29T11:04:32.907Z,69.80
2019-03-29T11:07:02.781Z,77.80
2019-03-29T11:09:31.625Z,79.23
2019-03-29T11:12:00.630Z,82.97
2019-03-29T11:14:32.003Z,77.33
2019-03-29T11:17:01.138Z,77.93
2019-03-29T11:19:30.167Z,80.33
2019-03-29T11:21:59.217Z,78.67
2019-03-29T11:24:28.212Z,71.90
2019-03-29T11:26:57.322Z,71.13
2019-03-29T11:29:26.300Z,69.40
2019-03-29T11:31:55.442Z,71.00
2019-03-29T11:34:24.472Z,68.03
2019-03-29T11:36:54.704Z,64.87
2019-03-29T11:39:27.239Z,59.33
2019-03-29T11:41:55.917Z,63.20
2019-03-29T11:44:24.878Z,62.40
2019-03-29T11:46:54.138Z,55.90
2019-03-29T11:49:26.520Z,55.00
2019-03-29T11:52:02.735Z,62.40
2019-03-29T11:54:38.552Z,66.53
2019-03-29T11:57:07.844Z,68.90
2019-03-29T11:59:39.986Z,70.93
2019-03-29T12:02:10.127Z,64.27
2019-03-29T12:04:40.956Z,63.90
2019-03-29T12:07:10.195Z,68.00
2019-03-29T13:56:47.373Z,53.50
2019-03-29T13:59:16.536Z,53.00
2019-03-29T14:01:45.744Z,59.40
2019-03-29T14:05:04.996Z,66.33
2019-03-29T14:08:17.558Z,68.60
2019-03-29T14:10:37.168Z,71.73
2019-03-29T14:13:52.518Z,71.17
2019-03-29T14:19:47.427Z,70.00
2019-03-29T14:22:19.047Z,72.03
2019-03-29T14:24:53.887Z,68.30
2019-03-29T14:27:42.928Z,64.07
2019-03-29T14:33:39.078Z,68.27
2019-03-29T14:36:17.668Z,71.40
2019-03-29T14:38:43.621Z,66.93
2019-03-29T14:41:44.229Z,70.93
2019-03-29T14:44:31.922Z,68.53
2019-03-29T14:46:57.178Z,65.93
2019-03-29T14:49:26.357Z,65.20
2019-03-29T15:31:38.210Z,62.83
2019-03-29T15:44:38.855Z,64.73
2019-03-29T15:47:10.343Z,61.87
2019-03-29T15:49:39.807Z,59.87
2019-03-29T15:55:37.693Z,61.27
2019-03-29T16:17:28.902Z,60.17
2019-03-29T16:19:57.827Z,59.30
2019-03-29T16:22:26.609Z,53.10
2019-03-29T16:24:58.358Z,63.40
2019-03-29T16:27:27.329Z,59.07
2019-03-29T16:29:56.237Z,55.77
2019-03-29T16:32:25.119Z,63.80
2019-03-29T16:34:54.090Z,53.03
2019-03-29T16:37:22.906Z,55.43
2019-03-29T16:39:54.674Z,56.50
2019-03-29T16:42:23.489Z,53.33
2019-03-29T16:44:52.373Z,53.87
2019-03-29T16:47:21.459Z,53.13
2019-03-29T16:49:50.400Z,57.50
2019-03-29T16:52:19.470Z,52.90
2019-03-29T16:54:48.413Z,58.13
2019-03-29T16:57:17.463Z,57.87
2019-03-29T16:59:46.357Z,60.13
2019-03-29T17:02:15.726Z,59.10
2019-03-29T17:04:44.611Z,54.63
2019-03-29T17:07:13.643Z,58.03
2019-03-29T17:09:42.668Z,55.60
2019-03-29T17:12:11.685Z,54.60
2019-03-29T17:14:40.826Z,56.43
2019-03-29T17:17:09.958Z,50.53
2019-03-29T17:19:40.019Z,54.20
2019-03-29T17:22:09.196Z,54.83
2019-03-29T17:24:38.382Z,53.07
2019-03-29T17:27:07.361Z,52.00
2019-03-29T17:29:36.619Z,50.03
2019-03-29T17:32:05.700Z,51.17
2019-03-29T17:34:34.828Z,48.73
2019-03-29T17:37:03.916Z,52.03
2019-03-29T17:39:33.015Z,50.00
2019-03-29T17:42:02.469Z,50.67
2019-03-29T17:44:31.503Z,52.83
2019-03-29T17:47:00.573Z,49.13
2019-03-29T17:49:30.226Z,49.63
2019-03-29T17:51:59.144Z,52.07
2019-03-29T17:54:28.176Z,47.37
2019-03-29T17:56:57.008Z,50.07
2019-03-29T17:59:25.889Z,49.27
2019-03-29T18:02:08.773Z,53.73
2019-03-29T18:04:28.582Z,47.23
2019-03-29T18:06:57.539Z,50.90
2019-03-29T18:09:29.125Z,55.33
2019-03-29T18:12:01.918Z,49.20
2019-03-29T18:14:31.155Z,54.00
2019-03-29T18:17:00.257Z,49.33
2019-03-29T18:19:29.568Z,47.73
2019-03-29T18:21:59.042Z,47.23
2019-03-29T18:24:31.305Z,50.70
2019-03-29T18:27:00.548Z,50.87
2019-03-29T18:29:29.832Z,51.70
2019-03-29T18:31:58.840Z,50.07
2019-03-29T18:34:27.693Z,51.30
2019-03-29T18:36:56.749Z,51.27
2019-03-29T18:39:28.296Z,52.40
2019-03-29T18:41:57.842Z,56.93
2019-03-29T18:44:28.816Z,54.80
2019-03-29T18:46:58.243Z,52.13
2019-03-29T18:49:27.572Z,54.73
2019-03-29T18:52:01.799Z,55.53
2019-03-29T18:54:31.321Z,61.27
2019-03-29T18:57:01.049Z,65.60
2019-03-29T18:59:30.801Z,55.33
2019-03-29T19:02:00.957Z,56.20
2019-03-29T19:04:30.885Z,53.37
2019-03-29T19:07:00.160Z,50.43
2019-03-29T19:09:31.749Z,53.67
2019-03-29T19:12:02.681Z,52.57
2019-03-29T19:15:27.209Z,55.87
2019-03-29T19:17:56.755Z,54.73
2019-03-29T19:20:29.204Z,51.17
2019-03-29T19:22:59.156Z,51.57
2019-03-29T19:25:29.377Z,45.43
2019-03-29T19:27:59.497Z,52.20
2019-03-29T19:30:28.809Z,48.97
2019-03-29T19:33:01.024Z,49.77
2019-03-29T19:35:30.842Z,47.77
2019-03-29T19:38:06.929Z,52.90
2019-03-29T19:40:40.928Z,46.63
2019-03-29T19:43:09.733Z,48.53
2019-03-29T19:45:39.167Z,44.40
2019-03-29T19:48:08.679Z,47.17
2019-03-29T19:51:05.636Z,47.40
2019-03-29T19:53:37.661Z,49.30
2019-03-29T19:56:12.262Z,48.30
2019-03-29T19:59:07.655Z,48.27
2019-03-29T20:01:36.861Z,43.90
2019-03-29T20:04:09.574Z,50.33
2019-03-29T20:06:37.852Z,51.87
2019-03-29T20:09:08.065Z,55.27
2019-03-29T20:11:37.238Z,52.50
2019-03-29T20:14:06.457Z,51.93
2019-03-29T20:16:35.983Z,51.10
2019-03-29T20:19:08.971Z,49.67
2019-03-29T20:21:38.548Z,50.63
2019-03-29T20:24:14.133Z,51.10
2019-03-29T20:26:54.003Z,53.37
2019-03-29T20:29:23.974Z,54.40
2019-03-29T20:32:02.013Z,55.23
2019-03-29T20:34:42.633Z,54.57
2019-03-29T20:37:13.875Z,56.13
2019-03-29T20:39:43.427Z,53.57
2019-03-29T20:45:02.954Z,60.63
2019-03-29T20:47:42.083Z,57.60
2019-03-29T20:50:02.671Z,55.87
2019-03-29T20:52:31.997Z,57.33
2019-03-29T20:55:04.281Z,57.83
2019-03-29T20:57:39.834Z,57.07
2019-03-29T21:00:22.357Z,57.57
2019-03-29T21:03:10.946Z,61.33
2019-03-29T21:05:46.494Z,59.07
2019-03-29T21:08:16.340Z,61.27
2019-03-29T21:10:55.650Z,65.13
2019-03-29T21:13:18.357Z,61.07
2019-03-29T21:16:14.700Z,63.73
2019-03-29T21:18:44.503Z,60.00
2019-03-29T21:21:27.524Z,64.67
2019-03-29T21:23:59.482Z,71.00
2019-03-29T21:26:34.911Z,67.80
2019-03-29T21:29:06.664Z,73.37
2019-03-29T21:31:53.455Z,69.27
2019-03-29T21:34:27.595Z,72.33
2019-03-29T21:37:03.914Z,74.70
2019-03-29T21:39:41.737Z,72.10
2019-03-29T21:42:11.058Z,72.13
2019-03-29T22:06:37.114Z,75.73
2019-03-29T22:09:55.801Z,74.50
